createdAt,value
2023-04-08T00:00:29.838Z,10.45
2023-04-08T00:02:56.787Z,8.68
2023-04-08T00:05:23.735Z,9.77
2023-04-08T00:07:50.694Z,9.10
2023-04-08T00:10:17.565Z,11.32
2023-04-08T00:12:44.507Z,11.10
2023-04-08T00:15:11.471Z,11.77
2023-04-08T00:17:38.332Z,13.55
2023-04-08T00:20:05.902Z,11.02
2023-04-08T00:22:32.747Z,12.55
2023-04-08T00:24:59.538Z,11.60
2023-04-08T00:27:26.372Z,12.93
2023-04-08T00:29:53.288Z,12.82
2023-04-08T00:32:20.104Z,12.77
2023-04-08T00:34:47.000Z,12.32
2023-04-08T00:37:13.861Z,10.60
2023-04-08T00:39:40.647Z,13.80
2023-04-08T00:42:07.500Z,11.60
2023-04-08T00:44:34.393Z,12.52
2023-04-08T00:47:01.388Z,11.85
2023-04-08T00:49:28.233Z,14.88
2023-04-08T00:51:56.107Z,14.82
2023-04-08T00:54:23.261Z,12.57
2023-04-08T00:56:50.179Z,14.00
2023-04-08T00:59:18.034Z,12.52
2023-04-08T01:01:53.579Z,14.63
2023-04-08T01:04:36.744Z,17.90
2023-04-08T01:07:22.238Z,12.98
2023-04-08T01:09:54.464Z,18.90
2023-04-08T01:12:27.434Z,16.90
2023-04-08T01:15:03.345Z,14.93
2023-04-08T01:17:31.041Z,16.73
2023-04-08T01:20:00.462Z,18.90
2023-04-08T01:22:54.849Z,16.15
2023-04-08T01:25:26.449Z,15.35
2023-04-08T01:27:56.890Z,18.40
2023-04-08T01:30:26.113Z,17.30
2023-04-08T01:32:56.822Z,18.23
2023-04-08T01:35:24.643Z,17.50
2023-04-08T01:37:53.526Z,16.30
2023-04-08T01:40:20.547Z,21.55
2023-04-08T01:42:52.898Z,21.10
2023-04-08T01:45:20.963Z,18.58
2023-04-08T01:47:49.377Z,16.67
2023-04-08T01:50:18.403Z,17.45
2023-04-08T01:52:47.657Z,19.17
2023-04-08T01:55:14.636Z,21.13
2023-04-08T01:57:44.385Z,26.75
2023-04-08T02:00:13.479Z,20.60
2023-04-08T02:02:43.365Z,19.02
2023-04-08T02:05:10.412Z,22.73
2023-04-08T02:07:37.179Z,20.45
2023-04-08T02:10:04.780Z,20.15
2023-04-08T02:12:33.098Z,23.15
2023-04-08T02:15:00.430Z,23.27
2023-04-08T02:17:37.485Z,19.30
2023-04-08T02:20:11.348Z,22.40
2023-04-08T02:22:47.388Z,22.80
2023-04-08T02:25:16.588Z,27.15
2023-04-08T02:27:46.085Z,20.63
2023-04-08T02:30:14.112Z,21.55
2023-04-08T02:32:42.025Z,24.10
2023-04-08T02:35:11.701Z,25.25
2023-04-08T02:37:38.569Z,22.92
2023-04-08T02:40:22.005Z,24.92
2023-04-08T02:42:48.794Z,22.67
2023-04-08T02:45:16.028Z,23.98
2023-04-08T02:47:42.853Z,27.13
2023-04-08T02:50:10.365Z,22.02
2023-04-08T02:52:37.137Z,28.13
2023-04-08T02:55:06.654Z,23.98
2023-04-08T02:57:33.668Z,23.25
2023-04-08T03:00:00.496Z,26.00
2023-04-08T03:02:27.451Z,26.73
2023-04-08T03:04:54.351Z,24.33
2023-04-08T03:07:21.224Z,23.98
2023-04-08T03:09:48.020Z,23.00
2023-04-08T03:12:14.857Z,27.30
2023-04-08T03:14:41.678Z,22.90
2023-04-08T03:17:08.572Z,23.55
2023-04-08T03:19:35.445Z,24.05
2023-04-08T03:22:02.275Z,25.02
2023-04-08T03:24:29.063Z,25.73
2023-04-08T03:26:55.875Z,21.65
2023-04-08T03:29:22.720Z,24.35
2023-04-08T03:34:30.793Z,23.73
2023-04-08T03:36:57.594Z,23.80
2023-04-08T03:39:24.370Z,25.67
2023-04-08T03:41:51.303Z,21.92
2023-04-08T03:44:18.075Z,22.00
2023-04-08T03:46:44.865Z,25.02
2023-04-08T03:49:11.699Z,23.50
2023-04-08T03:51:38.580Z,27.98
2023-04-08T03:54:05.664Z,23.55
2023-04-08T03:56:32.483Z,23.88
2023-04-08T03:58:59.258Z,21.77
2023-04-08T04:01:26.098Z,25.83
2023-04-08T04:03:53.081Z,23.75
2023-04-08T04:06:20.026Z,25.15
2023-04-08T04:08:46.921Z,25.90
2023-04-08T04:11:13.738Z,26.98
2023-04-08T04:13:40.534Z,24.90
2023-04-08T04:16:07.390Z,24.80
2023-04-08T04:18:34.242Z,33.53
2023-04-08T04:21:01.187Z,20.80
2023-04-08T04:23:28.004Z,23.90
2023-04-08T04:25:55.221Z,22.85
2023-04-08T04:28:21.986Z,23.92
2023-04-08T04:30:48.808Z,22.98
2023-04-08T04:33:15.643Z,24.00
2023-04-08T04:35:42.466Z,20.08
2023-04-08T04:38:12.465Z,23.02
2023-04-08T04:40:39.872Z,25.73
2023-04-08T04:43:06.728Z,22.95
2023-04-08T04:45:33.562Z,19.67
2023-04-08T04:48:00.376Z,20.55
2023-04-08T04:50:27.323Z,23.42
2023-04-08T04:52:54.093Z,25.77
2023-04-08T04:55:22.446Z,22.60
2023-04-08T04:57:49.747Z,22.20
2023-04-08T05:00:17.151Z,24.33
2023-04-08T05:02:44.346Z,20.98
2023-04-08T05:05:11.357Z,22.55
2023-04-08T05:07:38.890Z,23.15
2023-04-08T05:10:06.916Z,20.45
2023-04-08T05:12:33.733Z,22.90
2023-04-08T05:15:00.918Z,21.27
2023-04-08T05:17:27.749Z,23.27
2023-04-08T05:19:54.627Z,24.45
2023-04-08T05:22:21.441Z,26.10
2023-04-08T05:24:48.280Z,24.35
2023-04-08T05:27:15.102Z,23.42
2023-04-08T05:29:41.892Z,23.70
2023-04-08T05:32:08.738Z,21.73
2023-04-08T05:34:35.526Z,28.27
2023-04-08T05:37:02.341Z,23.83
2023-04-08T05:39:29.140Z,24.23
2023-04-08T05:41:56.138Z,22.77
2023-04-08T05:44:23.026Z,25.67
2023-04-08T05:46:49.888Z,26.08
2023-04-08T05:49:17.502Z,25.58
2023-04-08T05:51:44.366Z,27.90
2023-04-08T05:54:11.230Z,23.73
2023-04-08T05:56:38.017Z,25.17
2023-04-08T05:59:04.883Z,27.65
2023-04-08T06:01:32.073Z,26.95
2023-04-08T06:03:59.143Z,30.70
2023-04-08T06:06:26.225Z,28.83
2023-04-08T06:08:53.119Z,34.22
2023-04-08T06:11:20.043Z,26.25
2023-04-08T06:13:46.855Z,28.77
2023-04-08T06:16:15.636Z,31.75
2023-04-08T06:18:42.805Z,26.65
2023-04-08T06:21:10.812Z,27.27
2023-04-08T06:23:37.694Z,28.73
2023-04-08T06:26:05.166Z,29.23
2023-04-08T06:28:32.532Z,29.20
2023-04-08T06:30:59.965Z,30.55
2023-04-08T06:33:26.838Z,26.55
2023-04-08T06:36:03.956Z,33.40
2023-04-08T06:38:32.108Z,30.40
2023-04-08T06:41:08.183Z,31.05
2023-04-08T06:43:36.594Z,28.73
2023-04-08T06:46:03.748Z,28.55
2023-04-08T06:48:31.047Z,24.63
2023-04-08T06:50:59.363Z,27.20
2023-04-08T06:53:29.236Z,28.17
2023-04-08T06:55:56.348Z,26.80
2023-04-08T06:58:23.161Z,28.40
2023-04-08T07:00:50.022Z,30.42
2023-04-08T07:03:17.020Z,29.52
2023-04-08T07:05:44.709Z,28.52
2023-04-08T07:08:11.593Z,28.67
2023-04-08T07:10:38.500Z,25.73
2023-04-08T07:13:05.346Z,27.05
2023-04-08T07:15:32.192Z,32.15
2023-04-08T07:17:59.848Z,27.98
2023-04-08T07:20:26.748Z,25.58
2023-04-08T07:22:53.548Z,23.73
2023-04-08T07:25:20.505Z,30.23
2023-04-08T07:27:47.480Z,28.92
2023-04-08T07:30:14.400Z,28.63
2023-04-08T07:32:41.265Z,26.20
2023-04-08T07:35:08.416Z,27.13
2023-04-08T07:37:35.404Z,32.65
2023-04-08T07:40:02.418Z,24.65
2023-04-08T07:42:29.280Z,26.88
2023-04-08T07:44:56.204Z,30.13
2023-04-08T07:47:23.214Z,26.83
2023-04-08T07:49:50.315Z,25.35
2023-04-08T07:52:17.875Z,23.88
2023-04-08T07:54:44.637Z,25.83
2023-04-08T07:57:11.652Z,25.35
2023-04-08T07:59:38.562Z,23.33
2023-04-08T08:02:05.401Z,24.35
2023-04-08T08:04:32.801Z,23.48
2023-04-08T08:06:59.732Z,25.85
2023-04-08T08:09:26.597Z,24.98
2023-04-08T08:11:53.422Z,21.52
2023-04-08T08:14:20.540Z,34.78
2023-04-08T08:16:47.401Z,23.95
2023-04-08T08:19:14.644Z,22.25
2023-04-08T08:21:41.533Z,23.50
2023-04-08T08:24:08.398Z,23.88
2023-04-08T08:26:37.214Z,22.08
2023-04-08T08:29:04.994Z,19.92
2023-04-08T08:31:31.904Z,26.23
2023-04-08T08:33:58.729Z,23.10
2023-04-08T08:36:27.384Z,22.77
2023-04-08T08:38:54.295Z,18.80
2023-04-08T08:41:21.729Z,21.95
2023-04-08T08:43:49.304Z,19.02
2023-04-08T08:46:18.941Z,21.05
2023-04-08T08:48:46.320Z,21.92
2023-04-08T08:51:13.682Z,23.20
2023-04-08T08:53:45.213Z,20.40
2023-04-08T08:58:42.776Z,21.10
2023-04-08T09:01:43.983Z,17.52
2023-04-08T09:04:20.187Z,20.65
2023-04-08T09:06:50.280Z,28.67
2023-04-08T09:09:17.852Z,26.40
2023-04-08T09:11:46.533Z,26.15
2023-04-08T09:14:26.215Z,28.92
2023-04-08T09:16:53.670Z,31.02
2023-04-08T09:19:20.787Z,20.20
2023-04-08T09:22:08.633Z,19.55
2023-04-08T09:24:37.174Z,18.67
2023-04-08T09:27:05.651Z,23.45
2023-04-08T09:29:35.736Z,21.58
2023-04-08T09:32:04.350Z,20.13
2023-04-08T09:34:34.170Z,17.35
2023-04-08T09:37:01.468Z,19.00
2023-04-08T09:39:28.367Z,21.15
2023-04-08T09:41:59.070Z,21.27
2023-04-08T09:44:29.216Z,23.10
2023-04-08T09:47:08.394Z,18.80
2023-04-08T09:49:49.949Z,87.97
2023-04-08T09:52:34.016Z,19.45
2023-04-08T09:55:04.611Z,21.63
2023-04-08T09:57:46.723Z,21.40
2023-04-08T10:00:16.243Z,21.95
2023-04-08T10:03:07.017Z,32.60
2023-04-08T10:05:38.619Z,23.33
2023-04-08T10:08:07.012Z,24.15
2023-04-08T10:10:39.974Z,24.98
2023-04-08T10:13:08.287Z,23.50
2023-04-08T10:15:37.553Z,25.55
2023-04-08T10:18:09.413Z,27.23
2023-04-08T10:20:36.340Z,26.52
2023-04-08T10:23:13.502Z,24.98
2023-04-08T10:25:48.549Z,27.27
2023-04-08T10:28:16.280Z,29.05
2023-04-08T10:30:43.939Z,28.52
2023-04-08T10:33:12.589Z,28.40
2023-04-08T10:35:43.052Z,26.25
2023-04-08T10:38:10.030Z,25.40
2023-04-08T10:40:39.052Z,25.13
2023-04-08T10:43:06.149Z,30.25
2023-04-08T10:45:33.521Z,23.83
2023-04-08T10:48:20.687Z,24.55
2023-04-08T10:51:01.394Z,24.77
2023-04-08T10:53:40.058Z,25.58
2023-04-08T10:56:15.681Z,26.75
2023-04-08T10:58:59.204Z,25.40
2023-04-08T11:01:27.173Z,23.67
2023-04-08T11:03:54.154Z,27.58
2023-04-08T11:06:21.215Z,24.58
2023-04-08T11:08:48.253Z,25.48
2023-04-08T11:11:15.464Z,23.38
2023-04-08T11:13:52.767Z,58.05
2023-04-08T11:16:22.944Z,25.92
2023-04-08T11:18:51.085Z,25.30
2023-04-08T11:21:18.230Z,22.98
2023-04-08T11:23:45.292Z,30.73
2023-04-08T11:26:13.658Z,27.40
2023-04-08T11:28:40.536Z,27.80
2023-04-08T11:31:08.990Z,27.00
2023-04-08T11:33:36.410Z,29.98
2023-04-08T11:36:06.304Z,32.58
2023-04-08T11:38:33.168Z,22.10
2023-04-08T11:41:00.452Z,21.67
2023-04-08T11:43:28.671Z,29.13
2023-04-08T11:45:55.822Z,27.52
2023-04-08T11:48:23.774Z,22.63
2023-04-08T11:51:08.977Z,24.58
2023-04-08T11:53:38.974Z,29.23
2023-04-08T11:56:19.558Z,26.48
2023-04-08T11:58:46.765Z,27.98
2023-04-08T12:01:14.467Z,29.30
2023-04-08T12:03:57.976Z,25.42
2023-04-08T12:06:27.317Z,25.42
2023-04-08T12:08:55.758Z,22.13
2023-04-08T12:11:24.039Z,26.60
2023-04-08T12:13:51.606Z,25.88
2023-04-08T12:16:20.186Z,22.05
2023-04-08T12:18:47.244Z,28.40
2023-04-08T12:21:14.377Z,26.70
2023-04-08T12:23:41.577Z,32.58
2023-04-08T12:26:08.446Z,27.05
2023-04-08T12:28:36.338Z,26.02
2023-04-08T12:31:03.539Z,28.20
2023-04-08T12:33:30.879Z,24.67
2023-04-08T12:35:59.245Z,29.40
2023-04-08T12:38:27.158Z,26.27
2023-04-08T12:40:54.306Z,24.45
2023-04-08T12:43:22.091Z,27.17
2023-04-08T12:45:49.225Z,26.90
2023-04-08T12:48:16.073Z,29.20
2023-04-08T12:50:42.978Z,30.67
2023-04-08T12:53:09.839Z,24.00
2023-04-08T12:55:37.108Z,30.55
2023-04-08T12:58:03.996Z,25.17
2023-04-08T13:00:30.786Z,26.98
2023-04-08T13:02:57.685Z,24.58
2023-04-08T13:05:39.844Z,26.50
2023-04-08T13:08:10.049Z,27.60
2023-04-08T13:10:36.861Z,24.50
2023-04-08T13:13:03.756Z,25.67
2023-04-08T13:15:30.574Z,34.38
2023-04-08T13:17:57.427Z,25.23
2023-04-08T13:20:26.192Z,28.08
2023-04-08T13:22:53.410Z,24.98
2023-04-08T13:25:20.478Z,23.65
2023-04-08T13:27:47.521Z,23.17
2023-04-08T13:30:14.362Z,25.50
2023-04-08T13:32:41.264Z,22.65
2023-04-08T13:35:08.457Z,27.88
2023-04-08T13:37:35.539Z,27.83
2023-04-08T13:40:02.456Z,23.83
2023-04-08T13:42:31.503Z,21.17
2023-04-08T13:44:58.705Z,19.17
2023-04-08T13:47:25.624Z,26.58
2023-04-08T13:49:53.392Z,22.75
2023-04-08T13:52:20.324Z,23.25
2023-04-08T13:54:47.160Z,25.63
2023-04-08T13:57:13.970Z,22.63
2023-04-08T13:59:43.240Z,21.35
2023-04-08T14:02:11.311Z,21.25
2023-04-08T14:04:38.230Z,22.30
2023-04-08T14:07:05.361Z,24.20
2023-04-08T14:09:32.206Z,21.65
2023-04-08T14:11:59.053Z,23.02
2023-04-08T14:14:25.995Z,26.23
2023-04-08T14:16:52.913Z,26.23
2023-04-08T14:19:19.727Z,25.05
2023-04-08T14:21:46.563Z,22.83
2023-04-08T14:24:13.463Z,27.05
2023-04-08T14:26:40.887Z,21.75
2023-04-08T14:29:08.394Z,24.70
2023-04-08T14:31:36.472Z,23.55
2023-04-08T14:34:03.713Z,25.45
2023-04-08T14:36:31.674Z,31.45
2023-04-08T14:38:58.701Z,22.48
2023-04-08T14:41:28.345Z,25.77
2023-04-08T14:43:55.423Z,23.05
2023-04-08T14:46:22.379Z,22.40
2023-04-08T14:48:49.807Z,25.60
2023-04-08T14:51:16.918Z,24.25
2023-04-08T14:53:43.713Z,23.88
2023-04-08T14:56:11.282Z,23.58
2023-04-08T14:58:38.217Z,24.40
2023-04-08T15:01:05.262Z,22.77
2023-04-08T15:03:32.306Z,21.83
2023-04-08T15:05:59.841Z,25.65
2023-04-08T15:08:26.948Z,20.85
2023-04-08T15:10:53.783Z,29.90
2023-04-08T15:13:20.649Z,24.92
2023-04-08T15:15:47.512Z,28.20
2023-04-08T15:18:15.529Z,36.28
2023-04-08T15:20:42.499Z,28.92
2023-04-08T15:23:09.303Z,27.00
2023-04-08T15:25:36.263Z,33.53
2023-04-08T15:28:03.550Z,31.23
2023-04-08T15:30:35.370Z,25.05
2023-04-08T15:33:04.305Z,30.35
2023-04-08T15:35:31.523Z,26.73
2023-04-08T15:37:58.507Z,27.48
2023-04-08T15:40:25.888Z,23.92
2023-04-08T15:42:53.089Z,26.30
2023-04-08T15:45:20.105Z,24.73
2023-04-08T15:47:47.017Z,23.42
2023-04-08T15:50:14.976Z,23.35
2023-04-08T15:52:41.944Z,25.35
2023-04-08T15:55:08.944Z,29.00
2023-04-08T15:57:36.846Z,27.25
2023-04-08T16:00:10.913Z,25.65
2023-04-08T16:02:38.544Z,24.35
2023-04-08T16:05:06.275Z,28.13
2023-04-08T16:07:33.115Z,28.67
2023-04-08T16:09:59.938Z,28.50
2023-04-08T16:12:27.027Z,25.90
2023-04-08T16:14:53.844Z,26.15
2023-04-08T16:17:20.995Z,25.95
2023-04-08T16:19:47.974Z,31.15
2023-04-08T16:22:14.790Z,34.03
2023-04-08T16:24:41.598Z,29.70
2023-04-08T16:27:08.753Z,28.27
2023-04-08T16:29:35.642Z,31.48
2023-04-08T16:32:02.558Z,28.38
2023-04-08T16:34:30.375Z,30.00
2023-04-08T16:36:57.216Z,27.63
2023-04-08T16:39:24.040Z,34.13
2023-04-08T16:41:50.846Z,39.65
2023-04-08T16:44:17.644Z,36.10
2023-04-08T16:46:44.523Z,32.17
2023-04-08T16:49:14.071Z,29.23
2023-04-08T16:51:41.845Z,31.33
2023-04-08T16:54:08.677Z,29.58
2023-04-08T16:56:35.514Z,32.22
2023-04-08T16:59:02.280Z,30.05
2023-04-08T17:01:29.279Z,28.30
2023-04-08T17:03:57.232Z,28.58
2023-04-08T17:06:24.537Z,32.20
2023-04-08T17:08:51.625Z,27.73
2023-04-08T17:11:18.883Z,28.77
2023-04-08T17:13:46.251Z,27.95
2023-04-08T17:16:17.434Z,36.20
2023-04-08T17:18:44.963Z,31.90
2023-04-08T17:21:14.031Z,44.67
2023-04-08T17:23:40.968Z,42.83
2023-04-08T17:26:08.630Z,33.97
2023-04-08T17:28:36.171Z,30.50
2023-04-08T17:31:03.121Z,28.60
2023-04-08T17:33:30.037Z,32.25
2023-04-08T17:35:56.881Z,30.85
2023-04-08T17:38:23.799Z,29.25
2023-04-08T17:40:50.725Z,30.88
2023-04-08T17:43:18.065Z,30.27
2023-04-08T17:45:46.891Z,33.08
2023-04-08T17:48:13.886Z,32.67
2023-04-08T17:50:40.915Z,28.52
2023-04-08T17:53:07.751Z,33.10
2023-04-08T17:55:34.601Z,31.35
2023-04-08T17:58:02.259Z,32.88
2023-04-08T18:00:30.106Z,33.80
2023-04-08T18:02:57.356Z,38.03
2023-04-08T18:05:24.326Z,37.25
2023-04-08T18:07:51.537Z,36.10
2023-04-08T18:10:18.550Z,31.40
2023-04-08T18:12:45.858Z,30.05
2023-04-08T18:15:12.901Z,32.10
2023-04-08T18:17:39.704Z,42.75
2023-04-08T18:20:07.352Z,44.58
2023-04-08T18:22:34.197Z,46.47
2023-04-08T18:25:01.065Z,37.28
2023-04-08T18:27:27.862Z,35.50
2023-04-08T18:29:54.818Z,36.78
2023-04-08T18:32:21.808Z,31.05
2023-04-08T18:34:52.116Z,29.10
2023-04-08T18:37:23.032Z,37.60
2023-04-08T18:39:50.204Z,33.20
2023-04-08T18:42:17.537Z,35.78
2023-04-08T18:44:44.427Z,36.15
2023-04-08T18:47:11.368Z,32.40
2023-04-08T18:49:40.781Z,33.42
2023-04-08T18:52:08.441Z,42.97
2023-04-08T18:54:35.848Z,38.33
2023-04-08T18:57:03.070Z,34.40
2023-04-08T18:59:30.404Z,31.05
2023-04-08T19:02:33.015Z,32.83
2023-04-08T19:04:59.916Z,32.08
2023-04-08T19:07:27.535Z,33.13
2023-04-08T19:09:58.581Z,30.50
2023-04-08T19:12:26.309Z,34.97
2023-04-08T19:14:54.035Z,32.40
2023-04-08T19:17:21.031Z,35.90
2023-04-08T19:19:47.882Z,35.70
2023-04-08T19:22:14.679Z,33.10
2023-04-08T19:24:42.072Z,31.08
2023-04-08T19:27:08.931Z,39.95
2023-04-08T19:29:35.945Z,32.58
2023-04-08T19:32:04.234Z,34.55
2023-04-08T19:34:31.168Z,32.05
2023-04-08T19:36:57.953Z,36.00
2023-04-08T19:39:26.707Z,34.00
2023-04-08T19:41:55.011Z,35.72
2023-04-08T19:44:21.805Z,35.72
2023-04-08T19:46:48.686Z,39.03
2023-04-08T19:49:15.688Z,37.85
2023-04-08T19:51:42.539Z,32.90
2023-04-08T19:54:09.434Z,34.50
2023-04-08T19:56:37.089Z,37.17
2023-04-08T19:59:04.165Z,33.72
2023-04-08T20:01:31.110Z,39.53
2023-04-08T20:03:58.117Z,44.83
2023-04-08T20:06:24.977Z,42.70
2023-04-08T20:08:53.121Z,37.58
2023-04-08T20:11:20.905Z,37.53
2023-04-08T20:13:49.362Z,41.50
2023-04-08T20:16:16.700Z,38.67
2023-04-08T20:18:43.584Z,46.95
2023-04-08T20:21:13.881Z,55.55
2023-04-08T20:23:44.348Z,49.67
2023-04-08T20:26:12.664Z,46.88
2023-04-08T20:28:40.780Z,53.53
2023-04-08T20:31:07.752Z,46.47
2023-04-08T20:33:34.857Z,43.00
2023-04-08T20:36:01.814Z,43.83
2023-04-08T20:38:29.038Z,44.80
2023-04-08T20:40:56.156Z,39.78
2023-04-08T20:43:23.610Z,38.97
2023-04-08T20:45:50.442Z,46.08
2023-04-08T20:48:17.464Z,43.17
2023-04-08T20:50:45.024Z,49.85
2023-04-08T20:53:12.859Z,41.25
2023-04-08T20:55:39.726Z,42.15
2023-04-08T20:58:07.787Z,51.58
2023-04-08T21:00:35.019Z,46.33
2023-04-08T21:03:01.928Z,42.92
2023-04-08T21:05:28.799Z,41.63
2023-04-08T21:07:55.669Z,39.97
2023-04-08T21:10:22.616Z,41.03
2023-04-08T21:12:49.446Z,38.03
2023-04-08T21:15:16.293Z,53.80
2023-04-08T21:17:43.123Z,50.95
2023-04-08T21:20:10.726Z,43.97
2023-04-08T21:22:37.514Z,47.30
2023-04-08T21:25:05.589Z,42.65
2023-04-08T21:27:32.427Z,43.22
2023-04-08T21:29:59.237Z,47.00
2023-04-08T21:32:29.520Z,59.50
2023-04-08T21:34:56.959Z,58.08
2023-04-08T21:37:23.909Z,56.78
2023-04-08T21:39:51.473Z,60.22
2023-04-08T21:42:22.637Z,50.90
2023-04-08T21:44:49.841Z,67.47
2023-04-08T21:47:16.930Z,65.15
2023-04-08T21:49:44.059Z,64.25
2023-04-08T21:52:10.926Z,70.30
2023-04-08T21:54:37.957Z,63.63
2023-04-08T21:57:04.817Z,64.20
2023-04-08T21:59:31.625Z,69.18
2023-04-08T22:01:59.656Z,65.32
2023-04-08T22:04:27.757Z,60.15
2023-04-08T22:06:54.661Z,58.42
2023-04-08T22:09:21.592Z,64.53
2023-04-08T22:11:48.390Z,60.60
2023-04-08T22:14:17.335Z,61.25
2023-04-08T22:16:44.801Z,61.08
2023-04-08T22:19:11.773Z,57.47
2023-04-08T22:21:38.678Z,54.35
2023-04-08T22:24:05.669Z,57.45
2023-04-08T22:26:32.574Z,63.83
2023-04-08T22:28:59.353Z,63.25
2023-04-08T22:31:26.444Z,70.57
2023-04-08T22:33:53.381Z,69.65
2023-04-08T22:36:20.450Z,73.35
2023-04-08T22:38:47.245Z,62.17
2023-04-08T22:41:20.855Z,67.18
2023-04-08T22:43:48.322Z,62.67
2023-04-08T22:46:18.072Z,60.05
2023-04-08T22:48:45.516Z,62.40
2023-04-08T22:51:12.731Z,64.18
2023-04-08T22:53:39.737Z,62.85
2023-04-08T22:56:06.685Z,63.22
2023-04-08T22:58:33.490Z,68.90
2023-04-08T23:01:00.580Z,66.05
2023-04-08T23:03:27.717Z,63.28
2023-04-08T23:05:54.644Z,63.00
2023-04-08T23:08:21.458Z,64.10
2023-04-08T23:10:48.342Z,59.17
2023-04-08T23:13:15.187Z,64.40
2023-04-08T23:15:42.056Z,61.92
2023-04-08T23:18:08.871Z,64.43
2023-04-08T23:20:35.904Z,63.38
2023-04-08T23:23:03.582Z,101.10
2023-04-08T23:25:30.768Z,57.78
2023-04-08T23:27:57.595Z,63.08
2023-04-08T23:30:24.394Z,72.20
2023-04-08T23:32:51.268Z,79.03
2023-04-08T23:35:18.193Z,137.43
2023-04-08T23:37:45.002Z,127.15
2023-04-08T23:40:12.043Z,144.18
2023-04-08T23:42:38.866Z,136.98
2023-04-08T23:45:06.289Z,104.32
2023-04-08T23:47:33.174Z,138.25
2023-04-08T23:50:00.342Z,163.13
2023-04-08T23:52:27.168Z,72.57
2023-04-08T23:54:54.059Z,132.70
2023-04-08T23:57:20.872Z,111.43
2023-04-08T23:59:47.918Z,120.78
